Time;durP1;ratioP1;P1;durP2;ratioP2;P2;SDS_P1;SDS_P2;PMS_P1;PMS_P2;Temp;Humidity;BMP_temperature;BMP_pressure;BME280_temperature;BME280_humidity;BME280_pressure;Samples;Min_cycle;Max_cycle;Signal;HPM_P1;HPM_P2
2022/11/17 00:00:54;;;;;;;20.00;8.85;;;;;;;-148.88;100.00;74968.88;5013521;28;20028;-77
2022/11/17 00:03:20;;;;;;;18.08;8.90;;;;;;;-148.88;100.00;74956.69;5014237;28;20030;-77
2022/11/17 00:05:45;;;;;;;18.42;8.55;;;;;;;-148.88;100.00;74952.63;5013759;28;20041;-77
2022/11/17 00:08:11;;;;;;;19.02;8.77;;;;;;;-148.88;100.00;74948.56;5013271;28;20383;-77
2022/11/17 00:10:36;;;;;;;17.52;7.88;;;;;;;-148.88;100.00;74942.47;5011887;28;20117;-77
2022/11/17 00:15:45;;;;;;;15.30;7.55;;;;;;;-148.88;100.00;74934.38;5013342;28;20048;-76
2022/11/17 00:23:48;;;;;;;;;;;;;;;-148.88;100.00;74920.16;5017208;28;20068;-77
2022/11/17 00:26:25;;;;;;;16.48;6.97;;;;;;;-148.88;100.00;74916.09;5016619;28;19921;-77
2022/11/17 00:28:56;;;;;;;17.48;7.60;;;;;;;-148.88;100.00;74924.22;5015283;28;20038;-77
2022/11/17 00:34:14;;;;;;;17.92;8.73;;;;;;;-148.88;100.00;74910.00;5017119;28;20049;-77
2022/11/17 00:36:42;;;;;;;23.15;8.48;;;;;;;-148.88;100.00;74899.84;5016803;28;20422;-77
2022/11/17 00:39:09;;;;;;;16.23;8.20;;;;;;;-148.88;100.00;74910.00;5015269;28;20034;-77
2022/11/17 00:41:34;;;;;;;17.75;8.70;;;;;;;-148.88;100.00;74903.91;5016618;28;20018;-77
2022/11/17 00:44:00;;;;;;;17.25;7.90;;;;;;;-148.88;100.00;74901.88;5016106;28;20041;-77
2022/11/17 00:46:26;;;;;;;23.25;8.95;;;;;;;-148.88;100.00;74903.91;5016001;28;20026;-77
2022/11/17 00:48:51;;;;;;;23.67;9.20;;;;;;;-148.88;100.00;74895.78;5016216;28;20542;-77
2022/11/17 00:51:17;;;;;;;18.08;8.60;;;;;;;-148.88;100.00;74887.66;5016551;28;20022;-77
2022/11/17 00:53:42;;;;;;;18.17;8.20;;;;;;;-148.88;100.00;74873.44;5015260;28;20026;-76
2022/11/17 00:56:08;;;;;;;17.67;8.07;;;;;;;-148.88;100.00;74871.41;5016294;28;20045;-77
2022/11/17 00:58:34;;;;;;;20.10;8.93;;;;;;;-148.88;100.00;74879.53;5016384;28;20439;-77
2022/11/17 01:01:00;;;;;;;20.58;8.15;;;;;;;-148.88;100.00;74869.38;5016685;28;20018;-77
2022/11/17 01:03:25;;;;;;;14.50;7.68;;;;;;;-148.88;100.00;74871.41;5017046;28;20040;-78
2022/11/17 01:05:50;;;;;;;17.95;8.25;;;;;;;-148.88;100.00;74871.41;5015546;28;20032;-77
2022/11/17 01:08:16;;;;;;;18.98;8.38;;;;;;;-148.88;100.00;74873.44;5017125;28;20368;-78
2022/11/17 01:10:41;;;;;;;19.02;8.88;;;;;;;-148.88;100.00;74873.44;5015569;28;20378;-77
2022/11/17 01:13:06;;;;;;;18.63;9.02;;;;;;;-148.88;100.00;74863.28;5015306;28;20025;-77
2022/11/17 01:15:32;;;;;;;16.40;8.15;;;;;;;-148.88;100.00;74871.41;5015164;28;20087;-77
2022/11/17 01:17:58;;;;;;;19.83;8.93;;;;;;;-148.88;100.00;74867.34;5016872;28;20030;-77
2022/11/17 01:20:23;;;;;;;17.42;8.30;;;;;;;-148.88;100.00;74865.31;5017320;28;20072;-77
2022/11/17 01:22:48;;;;;;;17.63;8.00;;;;;;;-148.88;100.00;74867.34;5016190;28;20025;-77
2022/11/17 01:25:14;;;;;;;15.82;8.13;;;;;;;-148.88;100.00;74859.22;5017148;28;20029;-77
2022/11/17 01:27:39;;;;;;;17.02;8.30;;;;;;;-148.88;100.00;74867.34;5016444;28;20419;-77
2022/11/17 01:30:05;;;;;;;18.50;8.68;;;;;;;-148.88;100.00;74859.22;5017162;28;20017;-77
2022/11/17 01:32:34;;;;;;;15.93;8.45;;;;;;;-148.88;100.00;74855.16;5015300;28;20372;-77
2022/11/17 01:35:05;;;;;;;18.30;7.93;;;;;;;-148.88;100.00;74847.03;5016610;28;20060;-77
2022/11/17 01:37:39;;;;;;;20.27;9.73;;;;;;;-148.88;100.00;74847.03;5014675;28;20085;-77
2022/11/17 01:40:04;;;;;;;;;;;;;;;-148.88;100.00;74851.09;5015247;28;20030;-78
2022/11/17 01:42:35;;;;;;;17.52;7.63;;;;;;;-148.88;100.00;74853.13;5015930;28;20012;-76
2022/11/17 01:45:27;;;;;;;16.75;8.13;;;;;;;-148.88;100.00;74851.09;5014626;28;20025;-77
2022/11/17 01:48:08;;;;;;;19.70;7.63;;;;;;;-148.88;100.00;74847.03;5015083;28;20474;-78
2022/11/17 01:50:53;;;;;;;15.88;8.13;;;;;;;-148.88;100.00;74847.03;5016323;28;20052;-78
2022/11/17 01:53:21;;;;;;;16.73;7.47;;;;;;;-148.88;100.00;74838.91;5016706;28;20064;-77
2022/11/17 01:56:01;;;;;;;17.50;8.35;;;;;;;-148.88;100.00;74840.94;5016198;28;20514;-78
2022/11/17 01:58:37;;;;;;;16.13;7.35;;;;;;;-148.88;100.00;74832.81;5015752;28;20109;-77
2022/11/17 02:01:05;;;;;;;17.05;8.60;;;;;;;-148.88;100.00;74830.78;5016138;28;20080;-76
2022/11/17 02:03:41;;;;;;;19.13;8.00;;;;;;;-148.88;100.00;74826.72;5016388;28;20425;-76
2022/11/17 02:06:31;;;;;;;14.45;7.88;;;;;;;-148.88;100.00;74826.72;5016318;28;20056;-77
2022/11/17 02:09:10;;;;;;;17.70;8.35;;;;;;;-148.88;100.00;74822.66;5014172;28;20026;-77
2022/11/17 02:11:42;;;;;;;18.23;8.13;;;;;;;-148.88;100.00;74824.69;5015660;28;20364;-78
2022/11/17 02:14:14;;;;;;;18.30;8.50;;;;;;;-148.88;100.00;74822.66;5015728;28;20022;-77
2022/11/17 02:16:39;;;;;;;14.25;7.28;;;;;;;-148.88;100.00;74826.72;5015488;28;20105;-77
2022/11/17 02:19:16;;;;;;;14.52;7.55;;;;;;;-148.88;100.00;74822.66;5015517;28;20057;-77
2022/11/17 02:21:57;;;;;;;14.23;7.75;;;;;;;-148.88;100.00;74816.56;5015985;28;20030;-77
2022/11/17 02:25:06;;;;;;;15.45;7.93;;;;;;;-148.88;100.00;74814.53;5015413;28;20384;-78
2022/11/17 02:27:51;;;;;;;13.55;7.57;;;;;;;-148.88;100.00;74804.41;4993912;28;20034;-77
2022/11/17 02:30:34;;;;;;;19.92;7.93;;;;;;;-148.88;100.00;74794.25;5014556;28;20026;-78
2022/11/17 02:33:13;;;;;;;15.20;7.65;;;;;;;-148.88;100.00;74788.16;5016163;28;20050;-78
2022/11/17 02:36:00;;;;;;;11.85;7.03;;;;;;;-148.88;100.00;74790.19;5016039;28;20113;-77
2022/11/17 02:39:04;;;;;;;16.40;7.55;;;;;;;-148.88;100.00;74790.19;5013866;28;20029;-76
2022/11/17 02:41:49;;;;;;;14.77;7.10;;;;;;;-148.88;100.00;74786.13;4993937;28;20050;-77
2022/11/17 02:44:41;;;;;;;15.73;7.72;;;;;;;-148.88;100.00;74782.06;4999021;28;20045;-77
2022/11/17 02:47:49;;;;;;;11.10;6.95;;;;;;;-148.88;100.00;74778.00;5015905;28;20059;-78
2022/11/17 02:50:18;;;;;;;14.27;7.32;;;;;;;-148.88;100.00;74771.91;5014378;28;20113;-78
2022/11/17 02:52:46;;;;;;;16.02;6.82;;;;;;;-148.88;100.00;74759.72;5016188;28;20479;-77
2022/11/17 02:55:13;;;;;;;12.32;6.32;;;;;;;-148.88;100.00;74757.69;5014984;28;20514;-78
2022/11/17 02:57:41;;;;;;;13.35;6.60;;;;;;;-148.88;100.00;74759.72;5015438;28;20041;-78
2022/11/17 03:03:41;;;;;;;12.02;6.22;;;;;;;-148.88;100.00;74755.66;5015358;28;20056;-78
2022/11/17 03:06:28;;;;;;;13.82;7.15;;;;;;;-148.88;100.00;74745.50;5013306;28;20024;-77
2022/11/17 03:08:54;;;;;;;14.43;7.60;;;;;;;-148.88;100.00;74747.53;5013829;28;20406;-78
2022/11/17 03:11:28;;;;;;;12.85;6.72;;;;;;;-148.88;100.00;74753.63;5014642;28;20101;-76
2022/11/17 03:14:31;;;;;;;12.00;6.53;;;;;;;-148.88;100.00;74749.56;5014125;28;20026;-77
2022/11/17 03:17:02;;;;;;;13.60;6.90;;;;;;;-148.88;100.00;74757.69;5014134;28;20479;-76
2022/11/17 03:20:23;;;;;;;10.38;5.95;;;;;;;-148.88;100.00;74757.69;5014637;28;20037;-76
2022/11/17 03:23:04;;;;;;;9.40;5.93;;;;;;;-148.88;100.00;74765.81;4990519;28;20117;-77
2022/11/17 03:25:54;;;;;;;;;;;;;;;;;;;;;
2022/11/17 03:28:32;;;;;;;11.85;5.65;;;;;;;-148.88;100.00;74759.72;5014232;28;20394;-78
2022/11/17 03:31:05;;;;;;;10.93;5.72;;;;;;;-148.88;100.00;74761.75;5014848;28;20017;-77
2022/11/17 03:33:35;;;;;;;10.48;6.03;;;;;;;-148.88;100.00;74761.75;5014389;28;20030;-77
2022/11/17 03:36:14;;;;;;;10.60;6.28;;;;;;;-148.88;100.00;74759.72;5013667;28;20057;-77
2022/11/17 03:38:51;;;;;;;11.50;6.15;;;;;;;-148.88;100.00;74753.63;5014349;28;20060;-78
2022/11/17 03:41:19;;;;;;;11.63;5.80;;;;;;;-148.88;100.00;74743.47;5014676;28;20101;-77
2022/11/17 03:43:54;;;;;;;11.23;6.32;;;;;;;-148.88;100.00;74745.50;5014071;28;20033;-78
2022/11/17 03:46:22;;;;;;;12.18;6.30;;;;;;;-148.88;100.00;74747.53;5013700;28;20032;-77
2022/11/17 03:49:08;;;;;;;10.32;6.15;;;;;;;-148.88;100.00;74745.50;5013540;28;20109;-77
2022/11/17 03:51:34;;;;;;;10.80;6.07;;;;;;;-148.88;100.00;74747.53;5013936;28;20069;-77
2022/11/17 03:54:05;;;;;;;14.25;7.35;;;;;;;-148.88;100.00;74743.47;5013821;28;20022;-77
2022/11/17 03:56:51;;;;;;;10.88;6.38;;;;;;;-148.88;100.00;74743.47;5017081;28;20049;-76
2022/11/17 03:59:32;;;;;;;12.30;6.47;;;;;;;-148.88;100.00;74739.41;5017506;28;20076;-77
2022/11/17 04:01:58;;;;;;;9.80;6.22;;;;;;;-148.88;100.00;74751.59;5016056;28;20021;-77
2022/11/17 04:05:04;;;;;;;11.27;6.63;;;;;;;-148.88;100.00;74741.44;5016166;28;20037;-77
2022/11/17 04:07:23;;;;;;;12.63;6.95;;;;;;;-148.88;100.00;74749.56;5017246;28;20088;-77
2022/11/17 04:09:57;;;;;;;10.68;6.53;;;;;;;-148.88;100.00;74749.56;5017323;28;20026;-76
2022/11/17 04:17:57;;;;;;;10.73;6.28;;;;;;;-148.88;100.00;74751.59;5017389;28;20561;-77
2022/11/17 04:20:47;;;;;;;12.60;6.90;;;;;;;-148.88;100.00;74753.63;5016658;28;20029;-76
2022/11/17 04:23:19;;;;;;;11.63;6.10;;;;;;;-148.88;100.00;74753.63;5016818;28;20041;-77
2022/11/17 04:28:35;;;;;;;12.85;7.20;;;;;;;-148.88;100.00;74755.66;5017111;28;20095;-76
2022/11/17 04:31:27;;;;;;;16.33;7.43;;;;;;;-148.88;100.00;74759.72;5016480;28;20018;-76
2022/11/17 04:34:06;;;;;;;13.45;7.10;;;;;;;-148.88;100.00;74763.78;5016648;28;20483;-76
2022/11/17 04:36:44;;;;;;;13.25;6.47;;;;;;;-148.88;100.00;74763.78;5014811;28;20050;-75
2022/11/17 04:39:18;;;;;;;12.82;7.25;;;;;;;-148.88;100.00;74773.94;5016838;28;20028;-76
2022/11/17 04:42:00;;;;;;;16.35;8.13;;;;;;;-148.88;100.00;74778.00;5016637;28;20049;-76
2022/11/17 04:44:31;;;;;;;12.90;7.28;;;;;;;-148.88;100.00;74778.00;5016942;28;20041;-76
2022/11/17 04:46:57;;;;;;;15.80;7.45;;;;;;;-148.88;100.00;74773.94;5014954;28;20069;-76
2022/11/17 04:49:30;;;;;;;13.98;8.00;;;;;;;-148.88;100.00;74786.13;5015019;28;20061;-76
2022/11/17 04:52:03;;;;;;;11.60;7.05;;;;;;;-148.88;100.00;74778.00;5016533;28;20399;-76
2022/11/17 04:54:35;;;;;;;14.80;7.90;;;;;;;-148.88;100.00;74775.97;5016252;28;20026;-76
2022/11/17 04:57:05;;;;;;;16.65;7.30;;;;;;;-148.88;100.00;74775.97;5014828;28;20018;-77
2022/11/17 04:59:40;;;;;;;11.55;7.10;;;;;;;-148.88;100.00;74775.97;5016107;28;20022;-77
2022/11/17 05:02:08;;;;;;;14.38;7.40;;;;;;;-148.88;100.00;74773.94;5014919;28;20475;-76
2022/11/17 05:04:55;;;;;;;13.73;6.88;;;;;;;-148.88;100.00;74778.00;5016125;28;20160;-76
2022/11/17 05:07:23;;;;;;;9.85;6.32;;;;;;;-148.88;100.00;74786.13;5014915;28;20026;-76
2022/11/17 05:09:51;;;;;;;14.10;7.22;;;;;;;-148.88;100.00;74778.00;5015956;28;20441;-76
2022/11/17 05:15:03;;;;;;;;;;;;;;;-148.88;100.00;74780.03;5016838;28;20391;-77
2022/11/17 05:17:31;;;;;;;13.18;6.10;;;;;;;-148.88;100.00;74786.13;5015943;28;19909;-78
2022/11/17 05:20:02;;;;;;;16.52;6.95;;;;;;;-148.88;100.00;74780.03;5014694;28;20076;-77
2022/11/17 05:25:22;;;;;;;12.95;6.93;;;;;;;-148.88;100.00;74775.97;5015615;28;20084;-77
2022/11/17 05:27:48;;;;;;;;;;;;;;;-148.88;100.00;74761.75;5016457;28;20384;-77
2022/11/17 05:30:24;;;;;;;11.20;6.03;;;;;;;-148.88;100.00;74761.75;5016068;28;20401;-77
2022/11/17 05:33:00;;;;;;;12.70;6.22;;;;;;;-148.88;100.00;74771.91;5015636;28;20041;-76
2022/11/17 05:35:28;;;;;;;15.88;6.38;;;;;;;-148.88;100.00;74771.91;5015712;28;20068;-76
2022/11/17 05:37:53;;;;;;;12.95;6.85;;;;;;;-148.88;100.00;74769.88;5015489;28;20030;-76
2022/11/17 05:40:19;;;;;;;12.23;6.32;;;;;;;-148.88;100.00;74769.88;5015685;28;20033;-76
2022/11/17 05:42:50;;;;;;;11.82;6.35;;;;;;;-148.88;100.00;74773.94;5015558;28;20076;-76
2022/11/17 05:45:16;;;;;;;13.57;6.32;;;;;;;-148.88;100.00;74773.94;5015630;28;20022;-77
2022/11/17 05:47:41;;;;;;;12.07;5.60;;;;;;;-148.88;100.00;74769.88;5015278;28;20029;-76
2022/11/17 05:50:20;;;;;;;12.63;6.75;;;;;;;-148.88;100.00;74763.78;5015587;28;20076;-77
2022/11/17 05:53:01;;;;;;;11.75;6.70;;;;;;;-148.88;100.00;74763.78;5015369;28;20083;-78
2022/11/17 05:55:33;;;;;;;12.20;6.28;;;;;;;-148.88;100.00;74769.88;5014465;28;20398;-78
2022/11/17 05:58:25;;;;;;;12.32;6.05;;;;;;;-148.88;100.00;74765.81;5015963;28;20029;-77
2022/11/17 06:00:54;;;;;;;11.35;5.45;;;;;;;-148.88;100.00;74765.81;5010373;28;20120;-77
2022/11/17 06:03:35;;;;;;;11.82;5.68;;;;;;;-148.88;100.00;74763.78;5014288;28;20034;-78
2022/11/17 06:06:10;;;;;;;10.93;5.50;;;;;;;-148.88;100.00;74759.72;5015606;28;20060;-77
2022/11/17 06:08:44;;;;;;;10.20;5.50;;;;;;;-148.88;100.00;74747.53;5016375;28;20036;-79
2022/11/17 06:11:14;;;;;;;11.65;5.00;;;;;;;-148.88;100.00;74747.53;5024094;28;20030;-79
2022/11/17 06:13:45;;;;;;;8.85;5.32;;;;;;;-148.88;100.00;74747.53;5021394;28;20093;-77
2022/11/17 06:16:14;;;;;;;9.68;5.10;;;;;;;-148.88;100.00;74741.44;5021296;28;20018;-78
2022/11/17 06:18:54;;;;;;;10.32;5.05;;;;;;;-148.88;100.00;74737.38;5022934;28;20496;-77
2022/11/17 06:21:20;;;;;;;11.55;5.45;;;;;;;-148.88;100.00;74733.31;5025085;28;20093;-77
2022/11/17 06:23:52;;;;;;;9.38;5.55;;;;;;;-148.88;100.00;74725.19;5023170;28;20050;-79
2022/11/17 06:26:17;;;;;;;9.48;5.38;;;;;;;-148.88;100.00;74721.13;5020886;28;20029;-78
2022/11/17 06:28:48;;;;;;;8.20;4.50;;;;;;;-148.88;100.00;74723.16;5020226;28;20026;-80
2022/11/17 06:31:15;;;;;;;9.48;4.93;;;;;;;-148.88;100.00;74729.25;5020931;28;20041;-80
2022/11/17 06:33:41;;;;;;;8.73;5.05;;;;;;;-148.88;100.00;74729.25;5020336;28;20049;-80
2022/11/17 06:36:16;;;;;;;8.73;4.80;;;;;;;-148.88;100.00;74731.28;5020774;28;20022;-81
2022/11/17 06:38:41;;;;;;;9.80;4.97;;;;;;;-148.88;100.00;74729.25;5020907;28;20030;-80
2022/11/17 06:41:10;;;;;;;9.85;4.93;;;;;;;-148.88;100.00;74729.25;5019420;28;20037;-79
2022/11/17 06:43:38;;;;;;;9.80;5.10;;;;;;;-148.88;100.00;74735.34;5021234;28;20061;-79
2022/11/17 06:46:04;;;;;;;8.25;4.88;;;;;;;-148.88;100.00;74739.41;5020373;28;20093;-79
2022/11/17 06:48:34;;;;;;;10.13;4.95;;;;;;;-148.88;100.00;74733.31;5020743;28;20100;-79
2022/11/17 06:51:02;;;;;;;9.35;4.78;;;;;;;-148.88;100.00;74737.38;5020121;28;20022;-78
2022/11/17 06:53:31;;;;;;;9.35;4.82;;;;;;;-148.88;100.00;74729.25;5020973;28;20383;-79
2022/11/17 06:56:07;;;;;;;9.23;4.85;;;;;;;-148.88;100.00;74723.16;5021631;28;20081;-78
2022/11/17 06:58:34;;;;;;;9.60;4.50;;;;;;;-148.88;100.00;74733.31;5021724;28;20056;-79
2022/11/17 07:01:06;;;;;;;7.90;4.07;;;;;;;-148.88;100.00;74733.31;5021601;28;20022;-78
2022/11/17 07:03:36;;;;;;;11.68;5.18;;;;;;;-148.88;100.00;74721.13;5021770;28;20034;-80
2022/11/17 07:06:07;;;;;;;7.93;4.07;;;;;;;-148.88;100.00;74729.25;5019516;28;20057;-79
2022/11/17 07:08:33;;;;;;;7.15;3.95;;;;;;;-148.88;100.00;74729.25;5020431;28;20618;-80
2022/11/17 07:11:12;;;;;;;9.35;4.57;;;;;;;-148.88;100.00;74729.25;5018649;28;20383;-80
2022/11/17 07:13:38;;;;;;;10.82;4.72;;;;;;;-148.88;100.00;74733.31;5019694;28;20080;-81
2022/11/17 07:16:15;;;;;;;9.70;4.70;;;;;;;-148.88;100.00;74741.44;5021275;28;20026;-79
2022/11/17 07:18:43;;;;;;;8.48;4.43;;;;;;;-148.88;100.00;74735.34;5018570;28;20038;-79
2022/11/17 07:21:11;;;;;;;8.98;3.90;;;;;;;-148.88;100.00;74741.44;5018468;28;20104;-79
2022/11/17 07:23:37;;;;;;;8.65;4.65;;;;;;;-148.88;100.00;74739.41;5018058;28;20025;-78
2022/11/17 07:26:04;;;;;;;8.40;4.03;;;;;;;-148.88;100.00;74737.38;5017756;28;20048;-79
2022/11/17 07:28:34;;;;;;;7.18;3.85;;;;;;;-148.88;100.00;74741.44;5018332;28;20468;-78
2022/11/17 07:31:05;;;;;;;6.70;3.58;;;;;;;-148.88;100.00;74741.44;5017260;28;20065;-80
2022/11/17 07:33:39;;;;;;;7.78;4.13;;;;;;;-148.88;100.00;74739.41;5018476;28;20097;-78
2022/11/17 07:36:08;;;;;;;6.05;3.30;;;;;;;-148.88;100.00;74741.44;5018525;28;20450;-78
2022/11/17 07:38:38;;;;;;;7.55;3.67;;;;;;;-148.88;100.00;74729.25;5018955;28;20018;-79
2022/11/17 07:41:04;;;;;;;6.03;3.38;;;;;;;-148.88;100.00;74739.41;5017278;28;20030;-79
2022/11/17 07:43:33;;;;;;;7.53;3.78;;;;;;;-148.88;100.00;74745.50;5019473;28;20400;-80
2022/11/17 07:46:07;;;;;;;6.68;3.38;;;;;;;-148.88;100.00;74741.44;5019821;28;20033;-81
2022/11/17 07:48:36;;;;;;;6.85;3.30;;;;;;;-148.88;100.00;74743.47;5019338;28;20175;-81
2022/11/17 07:51:02;;;;;;;5.93;3.20;;;;;;;-148.88;100.00;74741.44;5019852;28;20022;-81
2022/11/17 07:53:31;;;;;;;7.28;3.60;;;;;;;-148.88;100.00;74741.44;5018535;28;20026;-79
2022/11/17 07:56:06;;;;;;;6.22;3.50;;;;;;;-148.88;100.00;74737.38;5018368;28;20025;-79
2022/11/17 07:58:39;;;;;;;6.70;3.45;;;;;;;-148.88;100.00;74745.50;5016186;28;20026;-78
2022/11/17 08:01:15;;;;;;;6.40;3.22;;;;;;;-148.88;100.00;74745.50;5018798;28;20037;-79
2022/11/17 08:03:42;;;;;;;6.22;3.38;;;;;;;-148.88;100.00;74747.53;5017628;28;20021;-79
2022/11/17 08:06:15;;;;;;;6.75;3.60;;;;;;;-148.88;100.00;74745.50;5017105;28;20526;-79
2022/11/17 08:08:43;;;;;;;;;;;;;;;-148.88;100.00;74745.50;5018246;28;20022;-78
2022/11/17 08:11:10;;;;;;;5.35;3.13;;;;;;;-148.88;100.00;74741.44;5018652;28;19910;-78
2022/11/17 08:13:45;;;;;;;5.22;3.00;;;;;;;-148.88;100.00;74733.31;5016158;28;20024;-79
2022/11/17 08:16:11;;;;;;;6.57;3.30;;;;;;;-148.88;100.00;74727.22;5016669;28;20025;-79
2022/11/17 08:18:37;;;;;;;5.47;3.20;;;;;;;-148.88;100.00;74713.00;5016293;28;20053;-80
2022/11/17 08:21:08;;;;;;;5.40;2.80;;;;;;;-148.88;100.00;74708.94;5018854;28;20068;-81
2022/11/17 08:23:37;;;;;;;5.93;2.90;;;;;;;-148.88;100.00;74710.97;5018624;28;20053;-79
2022/11/17 08:26:09;;;;;;;6.85;3.80;;;;;;;-148.88;100.00;74700.84;5021315;28;20063;-80
2022/11/17 08:28:37;;;;;;;5.65;3.17;;;;;;;-148.88;100.00;74708.94;5019224;28;20056;-79
2022/11/17 08:31:09;;;;;;;6.18;3.22;;;;;;;-148.88;100.00;74713.00;5019335;28;20014;-79
2022/11/17 08:33:37;;;;;;;5.55;3.08;;;;;;;-148.88;100.00;74710.97;5017586;28;20463;-80
2022/11/17 08:36:08;;;;;;;5.95;3.10;;;;;;;-148.88;100.00;74717.06;5017280;28;20017;-78
2022/11/17 08:38:34;;;;;;;4.50;2.42;;;;;;;-148.88;100.00;74708.94;5016082;28;20048;-79
2022/11/17 08:41:07;;;;;;;5.28;2.63;;;;;;;-148.88;100.00;74717.06;5017523;28;20030;-79
2022/11/17 08:43:33;;;;;;;5.57;2.53;;;;;;;-148.88;100.00;74704.88;5020459;28;20026;-79
2022/11/17 08:46:07;;;;;;;5.32;3.35;;;;;;;-148.88;100.00;74715.03;5020777;28;20475;-79
2022/11/17 08:48:36;;;;;;;6.40;3.40;;;;;;;-148.88;100.00;74710.97;5019740;28;20443;-78
2022/11/17 08:51:16;;;;;;;5.97;3.20;;;;;;;-148.88;100.00;74725.19;5021359;28;20101;-78
2022/11/17 08:53:42;;;;;;;5.53;2.65;;;;;;;-148.88;100.00;74721.13;5022470;28;20029;-79
2022/11/17 08:56:20;;;;;;;7.60;3.33;;;;;;;-148.88;100.00;74721.13;5023626;28;20025;-80
2022/11/17 08:58:51;;;;;;;5.15;2.72;;;;;;;-148.88;100.00;74713.00;5023503;28;20026;-80
2022/11/17 09:01:17;;;;;;;5.60;3.13;;;;;;;-148.88;100.00;74725.19;5025494;28;20049;-81
2022/11/17 09:03:53;;;;;;;6.97;3.20;;;;;;;-148.88;100.00;74721.13;5023551;28;20034;-78
2022/11/17 09:06:26;;;;;;;5.53;3.22;;;;;;;-148.88;100.00;74723.16;5024888;28;20029;-78
2022/11/17 09:08:54;;;;;;;5.90;3.53;;;;;;;-148.88;100.00;74729.25;5025127;28;20471;-78
2022/11/17 09:11:26;;;;;;;6.18;3.17;;;;;;;-148.88;100.00;74731.28;5024849;28;20164;-78
2022/11/17 09:13:52;;;;;;;6.28;3.35;;;;;;;-148.88;100.00;74733.31;5024752;28;20037;-78
2022/11/17 09:16:17;;;;;;;5.68;3.20;;;;;;;-148.88;100.00;74733.31;5026398;28;20021;-78
2022/11/17 09:18:43;;;;;;;4.88;2.70;;;;;;;-148.88;100.00;74737.38;5024336;28;20026;-78
2022/11/17 09:21:12;;;;;;;6.43;3.40;;;;;;;-148.88;100.00;74737.38;5027009;28;20101;-78
2022/11/17 09:23:37;;;;;;;6.00;3.63;;;;;;;-148.88;100.00;74737.38;5024680;28;20022;-78
2022/11/17 09:26:15;;;;;;;5.88;3.40;;;;;;;-148.88;100.00;74733.31;5027032;28;20057;-77
2022/11/17 09:28:44;;;;;;;6.60;3.22;;;;;;;-148.88;100.00;74729.25;5028223;28;20052;-77
2022/11/17 09:31:15;;;;;;;5.57;3.05;;;;;;;-148.88;100.00;74735.34;5028459;28;20026;-78
2022/11/17 09:33:42;;;;;;;6.15;3.25;;;;;;;-148.88;100.00;74733.31;5021761;28;20030;-79
2022/11/17 09:36:11;;;;;;;5.88;2.95;;;;;;;-148.88;100.00;74729.25;5018552;28;20022;-79
2022/11/17 09:38:37;;;;;;;5.72;2.95;;;;;;;-148.88;100.00;74721.13;5024205;28;20029;-78
2022/11/17 09:41:28;;;;;;;7.13;3.13;;;;;;;-148.88;100.00;74727.22;5026847;28;20034;-78
2022/11/17 09:44:03;;;;;;;7.15;3.17;;;;;;;-148.88;100.00;74737.38;5026880;28;20036;-79
2022/11/17 09:46:55;;;;;;;6.45;3.10;;;;;;;-148.88;100.00;74723.16;5025950;28;20026;-78
2022/11/17 09:49:36;;;;;;;6.32;3.17;;;;;;;-148.88;100.00;74729.25;5025277;28;20353;-78
2022/11/17 09:52:25;;;;;;;4.95;3.33;;;;;;;-148.88;100.00;74725.19;5024222;28;20022;-79
2022/11/17 09:55:25;;;;;;;5.75;3.08;;;;;;;-148.88;100.00;74723.16;5023788;28;20037;-78
2022/11/17 09:58:15;;;;;;;4.80;2.70;;;;;;;-148.88;100.00;74733.31;5015507;28;20034;-78
2022/11/17 10:00:46;;;;;;;4.57;2.35;;;;;;;-148.88;100.00;74719.09;5018113;28;20030;-78
2022/11/17 10:03:21;;;;;;;5.72;2.70;;;;;;;-148.88;100.00;74725.19;5024886;28;20041;-77
2022/11/17 10:05:50;;;;;;;5.03;2.65;;;;;;;-148.88;100.00;74721.13;5023149;28;20026;-77
2022/11/17 10:08:46;;;;;;;5.13;3.10;;;;;;;-148.88;100.00;74729.25;5025417;28;20025;-79
2022/11/17 10:11:35;;;;;;;4.57;2.80;;;;;;;-148.88;100.00;74715.03;5000808;28;20383;-79
2022/11/17 10:14:13;;;;;;;5.30;3.00;;;;;;;-148.88;100.00;74721.13;5020989;28;20028;-78
2022/11/17 10:16:48;;;;;;;4.72;2.60;;;;;;;-148.88;100.00;74717.06;5023145;28;20022;-78
2022/11/17 10:19:44;;;;;;;7.20;2.83;;;;;;;-148.88;100.00;74721.13;5022166;28;20029;-78
2022/11/17 10:22:09;;;;;;;5.88;3.10;;;;;;;-148.88;100.00;74715.03;5019136;28;20050;-78
2022/11/17 10:24:53;;;;;;;4.40;2.45;;;;;;;-148.88;100.00;74717.06;5022890;28;20029;-78
2022/11/17 10:27:26;;;;;;;5.28;3.00;;;;;;;-148.88;100.00;74713.00;5021560;28;20030;-78
2022/11/17 10:30:00;;;;;;;5.32;2.85;;;;;;;-148.88;100.00;74708.94;5022303;28;20033;-78
2022/11/17 10:32:29;;;;;;;5.97;2.97;;;;;;;-148.88;100.00;74715.03;5021415;28;20037;-78
2022/11/17 10:35:14;;;;;;;6.65;2.85;;;;;;;-148.88;100.00;74704.88;5022627;28;20026;-78
2022/11/17 10:38:00;;;;;;;5.60;2.72;;;;;;;-148.88;100.00;74710.97;5022940;28;20441;-78
2022/11/17 10:40:39;;;;;;;10.68;3.08;;;;;;;-148.88;100.00;74704.88;5020615;28;20486;-77
2022/11/17 10:43:20;;;;;;;6.40;2.88;;;;;;;-148.88;100.00;74721.13;5022933;28;20030;-78
2022/11/17 10:45:58;;;;;;;6.28;2.80;;;;;;;-148.88;100.00;74721.13;5023929;28;20118;-79
2022/11/17 10:48:38;;;;;;;5.35;2.97;;;;;;;-148.88;100.00;74723.16;5021731;28;20036;-77
2022/11/17 10:51:26;;;;;;;6.90;2.90;;;;;;;-148.88;100.00;74708.94;5023617;28;20419;-78
2022/11/17 10:54:23;;;;;;;5.55;2.70;;;;;;;-148.88;100.00;74702.84;5023824;28;20442;-78
2022/11/17 10:56:52;;;;;;;5.25;2.92;;;;;;;-148.88;100.00;74704.88;5005539;28;20041;-78
2022/11/17 10:59:33;;;;;;;6.25;3.10;;;;;;;-148.88;100.00;74704.88;5023627;28;20061;-78
2022/11/17 11:02:24;;;;;;;5.93;2.97;;;;;;;-148.88;100.00;74713.00;5016272;28;20026;-79
2022/11/17 11:05:11;;;;;;;5.65;3.00;;;;;;;-148.88;100.00;74717.06;5014425;28;20030;-79
2022/11/17 11:07:37;;;;;;;4.85;2.80;;;;;;;-148.88;100.00;74713.00;5014862;28;20069;-79
2022/11/17 11:10:06;;;;;;;5.07;2.80;;;;;;;-148.88;100.00;74721.13;5014993;28;20545;-79
2022/11/17 11:12:42;;;;;;;7.25;3.95;;;;;;;-148.88;100.00;74713.00;5014695;28;20030;-79
2022/11/17 11:15:15;;;;;;;5.93;2.83;;;;;;;-148.88;100.00;74713.00;5013469;28;20506;-78
2022/11/17 11:17:40;;;;;;;4.87;2.90;;;;;;;-148.88;100.00;74715.03;5014701;28;20382;-78
2022/11/17 11:20:12;;;;;;;6.03;3.38;;;;;;;-148.88;100.00;74696.78;5016326;28;20342;-80
2022/11/17 11:22:58;;;;;;;5.30;3.25;;;;;;;-148.88;100.00;74704.88;5017046;28;20029;-78
2022/11/17 11:25:40;;;;;;;6.68;3.03;;;;;;;-148.88;100.00;74713.00;5027093;22;20049;-77
2022/11/17 11:28:52;;;;;;;6.22;3.33;;;;;;;-148.88;100.00;74710.97;5013354;28;20483;-77
2022/11/17 11:31:55;;;;;;;5.53;3.10;;;;;;;-148.88;100.00;74710.97;4985491;28;20034;-77
2022/11/17 11:35:03;;;;;;;6.32;2.90;;;;;;;-148.88;100.00;74717.06;5013335;28;20030;-77
2022/11/17 11:37:38;;;;;;;6.53;3.20;;;;;;;-148.88;100.00;74725.19;5036656;22;20322;-84
2022/11/17 11:40:21;;;;;;;6.07;3.08;;;;;;;-148.88;100.00;74727.22;5013868;28;20058;-84
2022/11/17 11:42:57;;;;;;;10.60;3.55;;;;;;;-148.88;100.00;74731.28;5013672;28;20033;-85
2022/11/17 11:45:28;;;;;;;4.85;2.90;;;;;;;-148.88;100.00;74727.22;5013253;28;20034;-84
2022/11/17 11:48:04;;;;;;;6.90;3.33;;;;;;;-148.88;100.00;74723.16;5013233;28;20102;-84
2022/11/17 11:50:54;;;;;;;6.03;3.22;;;;;;;-148.88;100.00;74729.25;5013334;28;20018;-84
2022/11/17 11:53:25;;;;;;;7.20;3.47;;;;;;;-148.88;100.00;74721.13;5013671;28;20022;-85
2022/11/17 11:56:19;;;;;;;5.68;3.10;;;;;;;-148.88;100.00;74708.94;5014162;28;20512;-85
2022/11/17 11:58:52;;;;;;;5.68;2.90;;;;;;;-148.88;100.00;74713.00;5013044;28;20022;-85
2022/11/17 12:01:20;;;;;;;6.25;2.80;;;;;;;-148.88;100.00;74713.00;5014023;28;20497;-85
2022/11/17 12:03:53;;;;;;;5.80;3.42;;;;;;;-148.88;100.00;74727.22;5013460;28;20032;-85
2022/11/17 12:06:42;;;;;;;6.82;3.08;;;;;;;-148.88;100.00;74708.94;5014386;28;20025;-84